sensor_id;sensor_type;location;lat;lon;timestamp;temperature;humidity
12901;DHT22;6518;50.930;5.344;2023-08-24T00:02:10;22.10;73.10
12901;DHT22;6518;50.930;5.344;2023-08-24T00:04:38;22.10;73.10
12901;DHT22;6518;50.930;5.344;2023-08-24T00:07:05;22.10;73.30
12901;DHT22;6518;50.930;5.344;2023-08-24T00:09:32;22.10;73.50
12901;DHT22;6518;50.930;5.344;2023-08-24T00:11:58;22.00;73.70
12901;DHT22;6518;50.930;5.344;2023-08-24T00:14:27;22.00;73.90
12901;DHT22;6518;50.930;5.344;2023-08-24T00:16:53;22.00;74.10
12901;DHT22;6518;50.930;5.344;2023-08-24T00:19:20;22.00;74.00
12901;DHT22;6518;50.930;5.344;2023-08-24T00:21:47;21.90;74.30
12901;DHT22;6518;50.930;5.344;2023-08-24T00:24:14;22.00;74.40
12901;DHT22;6518;50.930;5.344;2023-08-24T00:26:41;22.00;74.40
12901;DHT22;6518;50.930;5.344;2023-08-24T00:29:08;21.90;74.80
12901;DHT22;6518;50.930;5.344;2023-08-24T00:31:36;21.90;75.20
12901;DHT22;6518;50.930;5.344;2023-08-24T00:34:03;21.90;75.30
12901;DHT22;6518;50.930;5.344;2023-08-24T00:36:30;21.80;75.70
12901;DHT22;6518;50.930;5.344;2023-08-24T00:38:57;21.80;76.20
12901;DHT22;6518;50.930;5.344;2023-08-24T00:41:24;21.70;76.40
12901;DHT22;6518;50.930;5.344;2023-08-24T00:43:51;21.70;76.70
12901;DHT22;6518;50.930;5.344;2023-08-24T00:46:19;21.70;76.90
12901;DHT22;6518;50.930;5.344;2023-08-24T00:48:47;21.60;77.20
12901;DHT22;6518;50.930;5.344;2023-08-24T00:51:14;21.60;77.20
12901;DHT22;6518;50.930;5.344;2023-08-24T00:53:41;21.60;77.50
12901;DHT22;6518;50.930;5.344;2023-08-24T00:56:08;21.50;77.60
12901;DHT22;6518;50.930;5.344;2023-08-24T00:58:35;21.50;77.80
12901;DHT22;6518;50.930;5.344;2023-08-24T01:01:04;21.50;78.80
12901;DHT22;6518;50.930;5.344;2023-08-24T01:03:31;21.50;78.30
12901;DHT22;6518;50.930;5.344;2023-08-24T01:06:00;21.40;78.40
12901;DHT22;6518;50.930;5.344;2023-08-24T01:08:27;21.40;78.70
12901;DHT22;6518;50.930;5.344;2023-08-24T01:10:59;21.30;78.80
12901;DHT22;6518;50.930;5.344;2023-08-24T01:13:34;21.30;79.10
12901;DHT22;6518;50.930;5.344;2023-08-24T01:16:08;21.20;79.30
12901;DHT22;6518;50.930;5.344;2023-08-24T01:18:38;21.20;79.50
12901;DHT22;6518;50.930;5.344;2023-08-24T01:21:07;21.20;79.60
12901;DHT22;6518;50.930;5.344;2023-08-24T01:23:43;21.20;79.80
12901;DHT22;6518;50.930;5.344;2023-08-24T01:26:14;21.20;80.00
12901;DHT22;6518;50.930;5.344;2023-08-24T01:28:44;21.20;80.20
12901;DHT22;6518;50.930;5.344;2023-08-24T01:31:13;21.10;80.30
12901;DHT22;6518;50.930;5.344;2023-08-24T01:33:41;21.10;80.50
12901;DHT22;6518;50.930;5.344;2023-08-24T01:36:08;21.10;80.50
12901;DHT22;6518;50.930;5.344;2023-08-24T01:38:36;21.10;80.60
12901;DHT22;6518;50.930;5.344;2023-08-24T01:41:10;21.20;80.70
12901;DHT22;6518;50.930;5.344;2023-08-24T01:43:40;21.20;80.80
12901;DHT22;6518;50.930;5.344;2023-08-24T01:46:08;21.20;80.90
12901;DHT22;6518;50.930;5.344;2023-08-24T01:48:36;21.20;80.90
12901;DHT22;6518;50.930;5.344;2023-08-24T01:51:04;21.20;80.90
12901;DHT22;6518;50.930;5.344;2023-08-24T01:53:31;21.20;81.00
12901;DHT22;6518;50.930;5.344;2023-08-24T01:55:59;21.20;81.00
12901;DHT22;6518;50.930;5.344;2023-08-24T01:58:26;21.20;81.00
12901;DHT22;6518;50.930;5.344;2023-08-24T02:00:54;21.20;81.80
12901;DHT22;6518;50.930;5.344;2023-08-24T02:03:21;21.50;81.30
12901;DHT22;6518;50.930;5.344;2023-08-24T02:05:48;21.20;81.10
12901;DHT22;6518;50.930;5.344;2023-08-24T02:08:15;21.20;81.10
12901;DHT22;6518;50.930;5.344;2023-08-24T02:10:42;21.20;81.10
12901;DHT22;6518;50.930;5.344;2023-08-24T02:13:08;21.20;81.30
12901;DHT22;6518;50.930;5.344;2023-08-24T02:15:38;21.10;81.30
12901;DHT22;6518;50.930;5.344;2023-08-24T02:18:07;21.20;81.50
12901;DHT22;6518;50.930;5.344;2023-08-24T02:20:35;21.10;81.50
12901;DHT22;6518;50.930;5.344;2023-08-24T02:23:02;21.10;82.40
12901;DHT22;6518;50.930;5.344;2023-08-24T02:25:29;21.10;81.60
12901;DHT22;6518;50.930;5.344;2023-08-24T02:27:56;21.10;81.60
12901;DHT22;6518;50.930;5.344;2023-08-24T02:30:23;21.10;81.30
12901;DHT22;6518;50.930;5.344;2023-08-24T02:32:50;21.10;81.10
12901;DHT22;6518;50.930;5.344;2023-08-24T02:35:18;21.20;81.10
12901;DHT22;6518;50.930;5.344;2023-08-24T02:37:45;21.20;81.00
12901;DHT22;6518;50.930;5.344;2023-08-24T02:40:12;21.20;80.80
12901;DHT22;6518;50.930;5.344;2023-08-24T02:42:39;21.20;81.50
12901;DHT22;6518;50.930;5.344;2023-08-24T02:45:06;21.30;80.50
12901;DHT22;6518;50.930;5.344;2023-08-24T02:47:33;21.30;80.50
12901;DHT22;6518;50.930;5.344;2023-08-24T02:50:02;21.40;80.50
12901;DHT22;6518;50.930;5.344;2023-08-24T02:52:31;21.40;80.30
12901;DHT22;6518;50.930;5.344;2023-08-24T02:54:58;21.40;80.40
12901;DHT22;6518;50.930;5.344;2023-08-24T02:57:25;21.40;80.80
12901;DHT22;6518;50.930;5.344;2023-08-24T02:59:52;21.40;81.40
12901;DHT22;6518;50.930;5.344;2023-08-24T03:02:19;21.40;81.70
12901;DHT22;6518;50.930;5.344;2023-08-24T03:04:46;21.40;82.30
12901;DHT22;6518;50.930;5.344;2023-08-24T03:07:13;21.40;82.90
12901;DHT22;6518;50.930;5.344;2023-08-24T03:09:41;21.30;83.40
12901;DHT22;6518;50.930;5.344;2023-08-24T03:12:08;21.30;84.10
12901;DHT22;6518;50.930;5.344;2023-08-24T03:14:35;21.20;84.80
12901;DHT22;6518;50.930;5.344;2023-08-24T03:17:02;21.20;85.70
12901;DHT22;6518;50.930;5.344;2023-08-24T03:19:31;21.10;86.50
12901;DHT22;6518;50.930;5.344;2023-08-24T03:21:58;21.00;87.30
12901;DHT22;6518;50.930;5.344;2023-08-24T03:24:24;20.90;88.30
12901;DHT22;6518;50.930;5.344;2023-08-24T03:26:53;20.80;88.80
12901;DHT22;6518;50.930;5.344;2023-08-24T03:29:20;20.80;89.80
12901;DHT22;6518;50.930;5.344;2023-08-24T03:31:48;20.80;90.40
12901;DHT22;6518;50.930;5.344;2023-08-24T03:34:14;20.80;91.30
12901;DHT22;6518;50.930;5.344;2023-08-24T03:36:42;20.70;92.30
12901;DHT22;6518;50.930;5.344;2023-08-24T03:39:09;20.70;93.10
12901;DHT22;6518;50.930;5.344;2023-08-24T03:41:37;20.60;94.10
12901;DHT22;6518;50.930;5.344;2023-08-24T03:44:05;20.60;95.70
12901;DHT22;6518;50.930;5.344;2023-08-24T03:46:32;20.70;96.60
12901;DHT22;6518;50.930;5.344;2023-08-24T03:48:59;20.70;98.00
12901;DHT22;6518;50.930;5.344;2023-08-24T03:51:27;20.70;98.80
12901;DHT22;6518;50.930;5.344;2023-08-24T03:53:54;20.70;99.20
12901;DHT22;6518;50.930;5.344;2023-08-24T03:56:20;20.80;99.70
12901;DHT22;6518;50.930;5.344;2023-08-24T03:58:47;20.80;99.90
12901;DHT22;6518;50.930;5.344;2023-08-24T04:01:16;20.80;99.90
12901;DHT22;6518;50.930;5.344;2023-08-24T04:03:43;20.70;99.90
12901;DHT22;6518;50.930;5.344;2023-08-24T04:06:09;20.80;99.90
12901;DHT22;6518;50.930;5.344;2023-08-24T04:08:36;20.70;99.90
12901;DHT22;6518;50.930;5.344;2023-08-24T04:11:03;20.70;99.90
12901;DHT22;6518;50.930;5.344;2023-08-24T04:13:30;20.70;99.90
12901;DHT22;6518;50.930;5.344;2023-08-24T04:15:57;20.70;99.90
12901;DHT22;6518;50.930;5.344;2023-08-24T04:18:25;20.70;99.90
12901;DHT22;6518;50.930;5.344;2023-08-24T04:20:52;20.70;99.90
12901;DHT22;6518;50.930;5.344;2023-08-24T04:23:24;20.70;99.90
12901;DHT22;6518;50.930;5.344;2023-08-24T04:25:52;20.60;99.90
12901;DHT22;6518;50.930;5.344;2023-08-24T04:28:19;20.60;99.90
12901;DHT22;6518;50.930;5.344;2023-08-24T04:30:50;20.60;99.90
12901;DHT22;6518;50.930;5.344;2023-08-24T04:33:18;20.60;99.90
12901;DHT22;6518;50.930;5.344;2023-08-24T04:35:47;20.50;99.90
12901;DHT22;6518;50.930;5.344;2023-08-24T04:38:14;20.50;99.90
12901;DHT22;6518;50.930;5.344;2023-08-24T04:40:49;20.50;99.90
12901;DHT22;6518;50.930;5.344;2023-08-24T04:43:16;20.50;99.90
12901;DHT22;6518;50.930;5.344;2023-08-24T04:45:46;20.50;99.90
12901;DHT22;6518;50.930;5.344;2023-08-24T04:48:13;20.50;99.90
12901;DHT22;6518;50.930;5.344;2023-08-24T04:50:43;20.50;99.90
12901;DHT22;6518;50.930;5.344;2023-08-24T04:53:12;20.50;99.90
12901;DHT22;6518;50.930;5.344;2023-08-24T04:55:39;20.40;99.90
12901;DHT22;6518;50.930;5.344;2023-08-24T04:58:07;20.30;99.90
12901;DHT22;6518;50.930;5.344;2023-08-24T05:00:34;20.30;99.90
12901;DHT22;6518;50.930;5.344;2023-08-24T05:03:01;20.30;99.90
12901;DHT22;6518;50.930;5.344;2023-08-24T05:05:28;20.20;99.90
12901;DHT22;6518;50.930;5.344;2023-08-24T05:07:55;20.20;99.90
12901;DHT22;6518;50.930;5.344;2023-08-24T05:10:24;20.30;99.90
12901;DHT22;6518;50.930;5.344;2023-08-24T05:12:51;20.20;99.90
12901;DHT22;6518;50.930;5.344;2023-08-24T05:15:18;20.30;99.90
12901;DHT22;6518;50.930;5.344;2023-08-24T05:17:45;20.30;99.90
12901;DHT22;6518;50.930;5.344;2023-08-24T05:20:12;20.30;99.90
12901;DHT22;6518;50.930;5.344;2023-08-24T05:22:39;20.30;99.90
12901;DHT22;6518;50.930;5.344;2023-08-24T05:25:07;20.40;99.90
12901;DHT22;6518;50.930;5.344;2023-08-24T05:27:35;20.40;99.90
12901;DHT22;6518;50.930;5.344;2023-08-24T05:30:02;20.50;99.90
12901;DHT22;6518;50.930;5.344;2023-08-24T05:32:31;20.50;99.90
12901;DHT22;6518;50.930;5.344;2023-08-24T05:34:58;20.60;99.90
12901;DHT22;6518;50.930;5.344;2023-08-24T05:37:25;20.60;99.90
12901;DHT22;6518;50.930;5.344;2023-08-24T05:39:52;20.70;99.90
12901;DHT22;6518;50.930;5.344;2023-08-24T05:42:19;20.70;99.90
12901;DHT22;6518;50.930;5.344;2023-08-24T05:44:48;20.70;99.90
12901;DHT22;6518;50.930;5.344;2023-08-24T05:47:16;20.70;99.90
12901;DHT22;6518;50.930;5.344;2023-08-24T05:49:42;20.70;99.90
12901;DHT22;6518;50.930;5.344;2023-08-24T05:52:10;20.80;99.90
12901;DHT22;6518;50.930;5.344;2023-08-24T05:54:37;20.90;99.90
12901;DHT22;6518;50.930;5.344;2023-08-24T05:57:04;20.90;99.90
12901;DHT22;6518;50.930;5.344;2023-08-24T05:59:32;21.00;99.90
12901;DHT22;6518;50.930;5.344;2023-08-24T06:02:01;21.10;99.90
12901;DHT22;6518;50.930;5.344;2023-08-24T06:04:28;21.10;99.90
12901;DHT22;6518;50.930;5.344;2023-08-24T06:06:55;21.20;99.90
12901;DHT22;6518;50.930;5.344;2023-08-24T06:09:22;21.30;99.90
12901;DHT22;6518;50.930;5.344;2023-08-24T06:11:49;21.30;99.90
12901;DHT22;6518;50.930;5.344;2023-08-24T06:14:16;21.40;99.90
12901;DHT22;6518;50.930;5.344;2023-08-24T06:16:43;21.40;99.90
12901;DHT22;6518;50.930;5.344;2023-08-24T06:19:11;21.50;99.90
12901;DHT22;6518;50.930;5.344;2023-08-24T06:21:38;21.50;99.90
12901;DHT22;6518;50.930;5.344;2023-08-24T06:24:06;21.50;99.90
12901;DHT22;6518;50.930;5.344;2023-08-24T06:26:33;21.60;99.90
12901;DHT22;6518;50.930;5.344;2023-08-24T06:29:00;21.70;99.90
12901;DHT22;6518;50.930;5.344;2023-08-24T06:31:27;21.70;99.90
12901;DHT22;6518;50.930;5.344;2023-08-24T06:33:55;21.80;99.90
12901;DHT22;6518;50.930;5.344;2023-08-24T06:36:27;21.80;99.90
12901;DHT22;6518;50.930;5.344;2023-08-24T06:38:55;21.90;99.90
12901;DHT22;6518;50.930;5.344;2023-08-24T06:41:24;22.00;99.90
12901;DHT22;6518;50.930;5.344;2023-08-24T06:43:51;22.10;99.90
12901;DHT22;6518;50.930;5.344;2023-08-24T06:46:21;22.20;99.90
12901;DHT22;6518;50.930;5.344;2023-08-24T06:48:48;22.30;99.90
12901;DHT22;6518;50.930;5.344;2023-08-24T06:51:15;22.40;99.90
12901;DHT22;6518;50.930;5.344;2023-08-24T06:53:44;22.50;99.90
12901;DHT22;6518;50.930;5.344;2023-08-24T06:56:13;22.60;99.90
12901;DHT22;6518;50.930;5.344;2023-08-24T06:58:41;22.80;99.90
12901;DHT22;6518;50.930;5.344;2023-08-24T07:01:08;22.90;99.90
12901;DHT22;6518;50.930;5.344;2023-08-24T07:03:36;23.00;99.90
12901;DHT22;6518;50.930;5.344;2023-08-24T07:06:05;23.10;99.90
12901;DHT22;6518;50.930;5.344;2023-08-24T07:08:33;23.20;99.90
12901;DHT22;6518;50.930;5.344;2023-08-24T07:11:06;23.30;99.90
12901;DHT22;6518;50.930;5.344;2023-08-24T07:13:36;23.40;99.90
12901;DHT22;6518;50.930;5.344;2023-08-24T07:16:03;23.40;99.90
12901;DHT22;6518;50.930;5.344;2023-08-24T07:18:30;23.50;99.90
12901;DHT22;6518;50.930;5.344;2023-08-24T07:20:57;23.50;99.90
12901;DHT22;6518;50.930;5.344;2023-08-24T07:23:24;23.60;99.90
12901;DHT22;6518;50.930;5.344;2023-08-24T07:25:51;23.70;99.90
12901;DHT22;6518;50.930;5.344;2023-08-24T07:28:21;23.70;99.90
12901;DHT22;6518;50.930;5.344;2023-08-24T07:30:48;23.80;99.90
12901;DHT22;6518;50.930;5.344;2023-08-24T07:33:16;23.90;99.90
12901;DHT22;6518;50.930;5.344;2023-08-24T07:35:43;24.00;99.90
12901;DHT22;6518;50.930;5.344;2023-08-24T07:38:10;24.10;99.90
12901;DHT22;6518;50.930;5.344;2023-08-24T07:40:38;24.20;99.90
12901;DHT22;6518;50.930;5.344;2023-08-24T07:43:05;24.30;99.90
12901;DHT22;6518;50.930;5.344;2023-08-24T07:45:35;24.40;99.90
12901;DHT22;6518;50.930;5.344;2023-08-24T07:48:02;24.50;99.90
12901;DHT22;6518;50.930;5.344;2023-08-24T07:50:29;24.60;99.90
12901;DHT22;6518;50.930;5.344;2023-08-24T07:52:56;24.70;99.90
12901;DHT22;6518;50.930;5.344;2023-08-24T07:55:24;24.80;99.90
12901;DHT22;6518;50.930;5.344;2023-08-24T07:57:51;24.90;99.90
12901;DHT22;6518;50.930;5.344;2023-08-24T08:00:19;24.90;99.90
12901;DHT22;6518;50.930;5.344;2023-08-24T08:02:49;25.00;99.90
12901;DHT22;6518;50.930;5.344;2023-08-24T08:05:17;25.10;99.90
12901;DHT22;6518;50.930;5.344;2023-08-24T08:07:44;25.10;99.90
12901;DHT22;6518;50.930;5.344;2023-08-24T08:10:11;25.20;99.80
12901;DHT22;6518;50.930;5.344;2023-08-24T08:12:38;24.90;99.30
12901;DHT22;6518;50.930;5.344;2023-08-24T08:15:06;25.20;98.90
12901;DHT22;6518;50.930;5.344;2023-08-24T08:17:33;25.30;98.80
12901;DHT22;6518;50.930;5.344;2023-08-24T08:20:04;25.30;97.70
12901;DHT22;6518;50.930;5.344;2023-08-24T08:22:32;25.30;97.40
12901;DHT22;6518;50.930;5.344;2023-08-24T08:25:01;25.30;96.90
12901;DHT22;6518;50.930;5.344;2023-08-24T08:27:28;25.40;96.50
12901;DHT22;6518;50.930;5.344;2023-08-24T08:29:55;25.40;96.10
12901;DHT22;6518;50.930;5.344;2023-08-24T08:32:23;25.50;95.60
12901;DHT22;6518;50.930;5.344;2023-08-24T08:34:53;25.50;95.40
12901;DHT22;6518;50.930;5.344;2023-08-24T08:37:21;25.50;95.00
12901;DHT22;6518;50.930;5.344;2023-08-24T08:39:48;25.50;94.80
12901;DHT22;6518;50.930;5.344;2023-08-24T08:42:16;25.60;94.30
12901;DHT22;6518;50.930;5.344;2023-08-24T08:44:46;25.60;94.20
12901;DHT22;6518;50.930;5.344;2023-08-24T08:47:13;25.70;94.00
12901;DHT22;6518;50.930;5.344;2023-08-24T08:49:42;25.70;93.70
12901;DHT22;6518;50.930;5.344;2023-08-24T08:52:09;25.70;93.40
12901;DHT22;6518;50.930;5.344;2023-08-24T08:54:39;25.80;93.00
12901;DHT22;6518;50.930;5.344;2023-08-24T08:57:07;25.80;92.80
12901;DHT22;6518;50.930;5.344;2023-08-24T08:59:34;25.90;92.10
12901;DHT22;6518;50.930;5.344;2023-08-24T09:02:03;25.90;91.60
12901;DHT22;6518;50.930;5.344;2023-08-24T09:04:32;25.90;91.60
12901;DHT22;6518;50.930;5.344;2023-08-24T09:06:59;25.90;91.40
12901;DHT22;6518;50.930;5.344;2023-08-24T09:09:30;26.00;90.60
12901;DHT22;6518;50.930;5.344;2023-08-24T09:11:59;26.00;90.60
12901;DHT22;6518;50.930;5.344;2023-08-24T09:14:26;26.00;90.70
12901;DHT22;6518;50.930;5.344;2023-08-24T09:16:53;26.10;91.10
12901;DHT22;6518;50.930;5.344;2023-08-24T09:19:28;26.10;90.60
12901;DHT22;6518;50.930;5.344;2023-08-24T09:21:57;26.20;90.50
12901;DHT22;6518;50.930;5.344;2023-08-24T09:24:29;26.30;90.30
12901;DHT22;6518;50.930;5.344;2023-08-24T09:26:58;26.40;90.10
12901;DHT22;6518;50.930;5.344;2023-08-24T09:29:26;26.50;89.40
12901;DHT22;6518;50.930;5.344;2023-08-24T09:31:54;26.60;88.60
12901;DHT22;6518;50.930;5.344;2023-08-24T09:34:24;26.60;88.20
12901;DHT22;6518;50.930;5.344;2023-08-24T09:36:55;26.60;87.60
12901;DHT22;6518;50.930;5.344;2023-08-24T09:39:24;26.50;87.40
12901;DHT22;6518;50.930;5.344;2023-08-24T09:41:51;26.60;87.40
12901;DHT22;6518;50.930;5.344;2023-08-24T09:44:21;26.50;87.40
12901;DHT22;6518;50.930;5.344;2023-08-24T09:46:50;26.50;87.30
12901;DHT22;6518;50.930;5.344;2023-08-24T09:49:17;26.50;87.20
12901;DHT22;6518;50.930;5.344;2023-08-24T09:51:46;26.50;88.20
12901;DHT22;6518;50.930;5.344;2023-08-24T09:54:17;26.50;87.20
12901;DHT22;6518;50.930;5.344;2023-08-24T09:56:48;26.40;87.10
12901;DHT22;6518;50.930;5.344;2023-08-24T09:59:17;26.40;87.20
12901;DHT22;6518;50.930;5.344;2023-08-24T10:01:50;26.40;87.30
12901;DHT22;6518;50.930;5.344;2023-08-24T10:04:23;26.40;87.10
12901;DHT22;6518;50.930;5.344;2023-08-24T10:06:54;26.30;87.10
12901;DHT22;6518;50.930;5.344;2023-08-24T10:09:26;26.20;87.30
12901;DHT22;6518;50.930;5.344;2023-08-24T10:11:58;26.10;86.60
12901;DHT22;6518;50.930;5.344;2023-08-24T10:14:30;26.10;87.80
12901;DHT22;6518;50.930;5.344;2023-08-24T10:17:00;26.00;88.30
12901;DHT22;6518;50.930;5.344;2023-08-24T10:19:29;25.90;88.80
12901;DHT22;6518;50.930;5.344;2023-08-24T10:21:57;25.80;90.40
12901;DHT22;6518;50.930;5.344;2023-08-24T10:24:27;25.60;91.20
12901;DHT22;6518;50.930;5.344;2023-08-24T10:26:55;25.50;92.20
12901;DHT22;6518;50.930;5.344;2023-08-24T10:29:23;25.30;93.40
12901;DHT22;6518;50.930;5.344;2023-08-24T10:31:53;25.20;94.60
12901;DHT22;6518;50.930;5.344;2023-08-24T10:34:22;25.10;95.70
12901;DHT22;6518;50.930;5.344;2023-08-24T10:36:49;24.90;96.90
12901;DHT22;6518;50.930;5.344;2023-08-24T10:39:17;24.80;97.40
12901;DHT22;6518;50.930;5.344;2023-08-24T10:41:49;24.70;99.30
12901;DHT22;6518;50.930;5.344;2023-08-24T10:44:21;24.70;99.80
12901;DHT22;6518;50.930;5.344;2023-08-24T10:47:22;24.60;99.90
12901;DHT22;6518;50.930;5.344;2023-08-24T10:50:07;24.50;99.90
12901;DHT22;6518;50.930;5.344;2023-08-24T10:52:36;24.40;99.90
12901;DHT22;6518;50.930;5.344;2023-08-24T10:55:21;24.40;99.90
12901;DHT22;6518;50.930;5.344;2023-08-24T10:57:56;24.30;99.90
12901;DHT22;6518;50.930;5.344;2023-08-24T11:00:25;24.20;99.90
12901;DHT22;6518;50.930;5.344;2023-08-24T11:02:53;24.20;99.90
12901;DHT22;6518;50.930;5.344;2023-08-24T11:05:22;24.10;99.90
12901;DHT22;6518;50.930;5.344;2023-08-24T11:07:52;24.60;99.90
12901;DHT22;6518;50.930;5.344;2023-08-24T11:10:21;24.10;99.90
12901;DHT22;6518;50.930;5.344;2023-08-24T11:13:08;24.10;99.90
12901;DHT22;6518;50.930;5.344;2023-08-24T11:15:38;24.10;99.90
12901;DHT22;6518;50.930;5.344;2023-08-24T11:18:22;24.10;99.90
12901;DHT22;6518;50.930;5.344;2023-08-24T11:20:53;24.20;99.90
12901;DHT22;6518;50.930;5.344;2023-08-24T11:23:22;24.20;99.90
12901;DHT22;6518;50.930;5.344;2023-08-24T11:25:51;24.20;99.90
12901;DHT22;6518;50.930;5.344;2023-08-24T11:28:22;24.20;99.90
12901;DHT22;6518;50.930;5.344;2023-08-24T11:30:49;24.30;99.90
12901;DHT22;6518;50.930;5.344;2023-08-24T11:33:27;24.40;99.90
12901;DHT22;6518;50.930;5.344;2023-08-24T11:35:56;24.50;99.90
12901;DHT22;6518;50.930;5.344;2023-08-24T11:38:24;24.70;99.90
12901;DHT22;6518;50.930;5.344;2023-08-24T11:40:51;24.70;99.90
12901;DHT22;6518;50.930;5.344;2023-08-24T11:43:26;24.80;99.90
12901;DHT22;6518;50.930;5.344;2023-08-24T11:45:54;24.80;99.90
12901;DHT22;6518;50.930;5.344;2023-08-24T11:48:24;24.90;99.90
12901;DHT22;6518;50.930;5.344;2023-08-24T11:50:52;24.90;99.90
12901;DHT22;6518;50.930;5.344;2023-08-24T11:53:22;25.00;99.90
12901;DHT22;6518;50.930;5.344;2023-08-24T11:55:52;25.00;99.90
12901;DHT22;6518;50.930;5.344;2023-08-24T11:58:18;25.00;99.90
12901;DHT22;6518;50.930;5.344;2023-08-24T12:00:46;25.10;99.90
12901;DHT22;6518;50.930;5.344;2023-08-24T12:03:13;25.30;99.90
12901;DHT22;6518;50.930;5.344;2023-08-24T12:05:41;25.30;99.90
12901;DHT22;6518;50.930;5.344;2023-08-24T12:08:11;25.40;99.90
12901;DHT22;6518;50.930;5.344;2023-08-24T12:10:43;25.50;99.90
12901;DHT22;6518;50.930;5.344;2023-08-24T12:13:12;25.50;99.90
12901;DHT22;6518;50.930;5.344;2023-08-24T12:15:40;25.50;99.90
12901;DHT22;6518;50.930;5.344;2023-08-24T12:18:08;25.50;99.90
12901;DHT22;6518;50.930;5.344;2023-08-24T12:20:35;25.50;99.90
12901;DHT22;6518;50.930;5.344;2023-08-24T12:23:03;25.50;99.90
12901;DHT22;6518;50.930;5.344;2023-08-24T12:25:30;25.40;99.90
12901;DHT22;6518;50.930;5.344;2023-08-24T12:28:17;25.40;99.90
12901;DHT22;6518;50.930;5.344;2023-08-24T12:30:46;25.40;99.90
12901;DHT22;6518;50.930;5.344;2023-08-24T12:33:31;25.20;99.90
12901;DHT22;6518;50.930;5.344;2023-08-24T12:35:58;25.40;99.90
12901;DHT22;6518;50.930;5.344;2023-08-24T12:38:26;25.30;99.90
12901;DHT22;6518;50.930;5.344;2023-08-24T12:40:54;25.30;99.90
12901;DHT22;6518;50.930;5.344;2023-08-24T12:43:22;25.30;99.90
12901;DHT22;6518;50.930;5.344;2023-08-24T12:45:51;25.20;99.90
12901;DHT22;6518;50.930;5.344;2023-08-24T12:48:18;25.20;99.90
12901;DHT22;6518;50.930;5.344;2023-08-24T12:50:46;25.10;99.90
12901;DHT22;6518;50.930;5.344;2023-08-24T12:53:13;25.10;99.90
12901;DHT22;6518;50.930;5.344;2023-08-24T12:55:41;25.00;99.90
12901;DHT22;6518;50.930;5.344;2023-08-24T12:58:08;24.90;99.90
12901;DHT22;6518;50.930;5.344;2023-08-24T13:00:37;24.90;99.90
12901;DHT22;6518;50.930;5.344;2023-08-24T13:03:04;24.80;99.90
12901;DHT22;6518;50.930;5.344;2023-08-24T13:05:31;24.70;99.90
12901;DHT22;6518;50.930;5.344;2023-08-24T13:07:59;24.70;99.90
12901;DHT22;6518;50.930;5.344;2023-08-24T13:10:26;24.60;99.90
12901;DHT22;6518;50.930;5.344;2023-08-24T13:12:53;24.50;99.90
12901;DHT22;6518;50.930;5.344;2023-08-24T13:15:20;24.50;99.90
12901;DHT22;6518;50.930;5.344;2023-08-24T13:17:48;24.40;99.90
12901;DHT22;6518;50.930;5.344;2023-08-24T13:20:16;24.40;99.90
12901;DHT22;6518;50.930;5.344;2023-08-24T13:22:43;24.40;99.90
12901;DHT22;6518;50.930;5.344;2023-08-24T13:25:10;24.30;99.90
12901;DHT22;6518;50.930;5.344;2023-08-24T13:27:37;24.20;99.90
12901;DHT22;6518;50.930;5.344;2023-08-24T13:30:05;24.20;99.90
12901;DHT22;6518;50.930;5.344;2023-08-24T13:32:33;24.10;99.90
12901;DHT22;6518;50.930;5.344;2023-08-24T13:35:02;24.00;99.90
12901;DHT22;6518;50.930;5.344;2023-08-24T13:37:29;23.90;99.90
12901;DHT22;6518;50.930;5.344;2023-08-24T13:39:57;23.80;99.90
12901;DHT22;6518;50.930;5.344;2023-08-24T13:42:24;23.80;99.90
12901;DHT22;6518;50.930;5.344;2023-08-24T13:44:51;23.70;99.90
12901;DHT22;6518;50.930;5.344;2023-08-24T13:47:18;23.70;99.90
12901;DHT22;6518;50.930;5.344;2023-08-24T13:49:47;23.60;99.90
12901;DHT22;6518;50.930;5.344;2023-08-24T13:52:15;23.60;99.90
12901;DHT22;6518;50.930;5.344;2023-08-24T13:54:44;23.50;99.90
12901;DHT22;6518;50.930;5.344;2023-08-24T13:57:11;23.40;99.90
12901;DHT22;6518;50.930;5.344;2023-08-24T13:59:38;23.30;99.90
12901;DHT22;6518;50.930;5.344;2023-08-24T14:02:05;23.20;99.90
12901;DHT22;6518;50.930;5.344;2023-08-24T14:04:33;23.20;99.90
12901;DHT22;6518;50.930;5.344;2023-08-24T14:07:00;23.10;99.90
12901;DHT22;6518;50.930;5.344;2023-08-24T14:09:28;23.00;99.90
12901;DHT22;6518;50.930;5.344;2023-08-24T14:11:55;23.00;99.90
12901;DHT22;6518;50.930;5.344;2023-08-24T14:14:23;22.90;99.90
12901;DHT22;6518;50.930;5.344;2023-08-24T14:16:54;22.80;99.90
12901;DHT22;6518;50.930;5.344;2023-08-24T14:19:21;22.80;99.90
12901;DHT22;6518;50.930;5.344;2023-08-24T14:21:48;22.80;99.90
12901;DHT22;6518;50.930;5.344;2023-08-24T14:24:15;22.80;99.90
12901;DHT22;6518;50.930;5.344;2023-08-24T14:26:44;22.80;99.90
12901;DHT22;6518;50.930;5.344;2023-08-24T14:29:12;22.80;99.90
12901;DHT22;6518;50.930;5.344;2023-08-24T14:31:39;22.80;99.90
12901;DHT22;6518;50.930;5.344;2023-08-24T14:34:06;22.80;99.90
12901;DHT22;6518;50.930;5.344;2023-08-24T14:36:33;22.70;99.90
12901;DHT22;6518;50.930;5.344;2023-08-24T14:39:00;22.70;99.90
12901;DHT22;6518;50.930;5.344;2023-08-24T14:41:30;22.70;99.90
12901;DHT22;6518;50.930;5.344;2023-08-24T14:43:59;22.80;99.90
12901;DHT22;6518;50.930;5.344;2023-08-24T14:46:27;22.80;99.90
12901;DHT22;6518;50.930;5.344;2023-08-24T14:48:54;22.80;99.90
12901;DHT22;6518;50.930;5.344;2023-08-24T14:51:22;22.80;99.90
12901;DHT22;6518;50.930;5.344;2023-08-24T14:53:49;22.80;99.90
12901;DHT22;6518;50.930;5.344;2023-08-24T14:56:16;22.80;99.90
12901;DHT22;6518;50.930;5.344;2023-08-24T14:58:44;22.80;99.90
12901;DHT22;6518;50.930;5.344;2023-08-24T15:01:13;22.80;99.90
12901;DHT22;6518;50.930;5.344;2023-08-24T15:03:40;22.80;99.90
12901;DHT22;6518;50.930;5.344;2023-08-24T15:06:08;22.80;99.90
12901;DHT22;6518;50.930;5.344;2023-08-24T15:08:35;22.90;99.90
12901;DHT22;6518;50.930;5.344;2023-08-24T15:11:03;22.90;99.90
12901;DHT22;6518;50.930;5.344;2023-08-24T15:13:30;22.90;99.90
12901;DHT22;6518;50.930;5.344;2023-08-24T15:15:58;23.00;99.90
12901;DHT22;6518;50.930;5.344;2023-08-24T15:18:26;22.50;99.90
12901;DHT22;6518;50.930;5.344;2023-08-24T15:20:53;23.20;99.90
12901;DHT22;6518;50.930;5.344;2023-08-24T15:23:21;23.20;99.90
12901;DHT22;6518;50.930;5.344;2023-08-24T15:25:48;23.30;99.90
12901;DHT22;6518;50.930;5.344;2023-08-24T15:28:15;23.30;99.90
12901;DHT22;6518;50.930;5.344;2023-08-24T15:30:42;23.30;99.90
12901;DHT22;6518;50.930;5.344;2023-08-24T15:33:09;23.40;99.90
12901;DHT22;6518;50.930;5.344;2023-08-24T15:35:39;23.40;99.90
12901;DHT22;6518;50.930;5.344;2023-08-24T15:38:06;23.40;99.90
12901;DHT22;6518;50.930;5.344;2023-08-24T15:40:33;23.40;99.90
12901;DHT22;6518;50.930;5.344;2023-08-24T15:43:00;23.40;99.90
12901;DHT22;6518;50.930;5.344;2023-08-24T15:45:28;23.50;99.90
12901;DHT22;6518;50.930;5.344;2023-08-24T15:47:55;23.60;99.90
12901;DHT22;6518;50.930;5.344;2023-08-24T15:50:23;23.70;99.90
12901;DHT22;6518;50.930;5.344;2023-08-24T15:52:51;23.70;99.90